createdAt,value
2017-12-10T00:00:55.889Z,6.93
2017-12-10T00:03:24.269Z,5.77
2017-12-10T00:05:53.159Z,11.27
2017-12-10T00:08:22.055Z,8.53
2017-12-10T00:10:50.945Z,4.63
2017-12-10T00:13:19.674Z,7.27
2017-12-10T00:15:49.279Z,4.27
2017-12-10T00:18:18.135Z,10.73
2017-12-10T00:20:48.004Z,17.37
2017-12-10T00:23:17.146Z,5.70
2017-12-10T00:25:46.190Z,6.63
2017-12-10T00:28:15.601Z,11.00
2017-12-10T00:30:44.837Z,5.93
2017-12-10T00:33:14.285Z,7.97
2017-12-10T00:35:43.438Z,5.97
2017-12-10T00:38:12.273Z,6.33
2017-12-10T00:40:41.219Z,6.03
2017-12-10T00:43:10.109Z,5.00
2017-12-10T00:45:39.101Z,7.23
2017-12-10T00:48:08.186Z,9.57
2017-12-10T00:50:45.049Z,6.50
2017-12-10T00:53:14.081Z,4.30
2017-12-10T00:55:43.233Z,5.87
2017-12-10T00:58:12.632Z,4.23
2017-12-10T01:00:41.365Z,14.53
2017-12-10T01:03:10.250Z,6.80
2017-12-10T01:05:39.453Z,15.17
2017-12-10T01:08:09.262Z,8.50
2017-12-10T01:10:39.176Z,8.10
2017-12-10T01:13:08.073Z,6.80
2017-12-10T01:15:37.365Z,8.20
2017-12-10T01:18:06.257Z,4.83
2017-12-10T01:20:36.171Z,7.20
2017-12-10T01:23:05.480Z,7.97
2017-12-10T01:25:35.185Z,10.63
2017-12-10T01:28:04.249Z,7.77
2017-12-10T01:30:33.169Z,23.33
2017-12-10T01:33:02.036Z,7.83
2017-12-10T01:35:30.952Z,6.80
2017-12-10T01:38:00.047Z,17.10
2017-12-10T01:40:28.942Z,15.40
2017-12-10T01:42:57.774Z,9.13
2017-12-10T01:45:26.720Z,8.40
2017-12-10T01:47:57.313Z,8.17
2017-12-10T01:50:26.856Z,8.93
2017-12-10T01:52:55.749Z,9.33
2017-12-10T01:55:24.996Z,8.10
2017-12-10T01:57:53.940Z,13.73
2017-12-10T02:00:23.855Z,15.40
2017-12-10T02:02:53.567Z,12.30
2017-12-10T02:05:22.457Z,9.60
2017-12-10T02:07:51.348Z,10.40
2017-12-10T02:10:21.268Z,12.90
2017-12-10T02:12:51.181Z,7.03
2017-12-10T02:15:20.069Z,9.07
2017-12-10T02:17:49.788Z,7.00
2017-12-10T02:20:19.490Z,8.47
2017-12-10T02:22:49.140Z,6.97
2017-12-10T02:25:18.100Z,12.40
2017-12-10T02:27:47.940Z,7.73
2017-12-10T02:30:19.880Z,16.43
2017-12-10T02:32:49.066Z,10.80
2017-12-10T02:35:17.965Z,8.40
2017-12-10T02:37:46.960Z,9.47
2017-12-10T02:40:15.849Z,12.80
2017-12-10T02:42:44.695Z,13.10
2017-12-10T02:45:13.729Z,11.67
2017-12-10T02:47:43.611Z,13.53
2017-12-10T02:50:12.534Z,10.90
2017-12-10T02:52:42.179Z,10.97
2017-12-10T02:55:11.066Z,16.60
2017-12-10T02:57:39.956Z,8.17
2017-12-10T03:00:09.683Z,11.70
2017-12-10T03:02:39.238Z,14.77
2017-12-10T03:05:08.334Z,22.33
2017-12-10T03:07:37.430Z,10.33
2017-12-10T03:10:07.346Z,19.47
2017-12-10T03:12:37.057Z,16.73
2017-12-10T03:15:06.622Z,22.40
2017-12-10T03:17:35.820Z,18.93
2017-12-10T03:20:04.758Z,12.60
2017-12-10T03:22:33.744Z,15.67
2017-12-10T03:25:07.669Z,11.27
2017-12-10T03:27:42.508Z,9.53
2017-12-10T03:30:15.173Z,11.47
2017-12-10T03:32:44.875Z,12.07
2017-12-10T03:35:15.164Z,26.37
2017-12-10T03:37:44.851Z,20.13
2017-12-10T03:40:13.800Z,13.80
2017-12-10T03:42:42.801Z,11.53
2017-12-10T03:45:11.802Z,13.23
2017-12-10T03:47:40.885Z,18.13
2017-12-10T03:50:09.775Z,19.43
2017-12-10T03:52:38.670Z,11.10
2017-12-10T03:55:07.712Z,17.80
2017-12-10T03:57:37.019Z,14.30
2017-12-10T04:00:05.953Z,20.23
2017-12-10T04:02:35.663Z,21.00
2017-12-10T04:05:04.758Z,17.83
2017-12-10T04:07:33.836Z,8.47
2017-12-10T04:10:04.205Z,16.43
2017-12-10T04:12:33.462Z,13.03
2017-12-10T04:15:02.729Z,14.00
2017-12-10T04:17:31.779Z,9.30
2017-12-10T04:20:00.971Z,12.07
2017-12-10T04:22:30.039Z,12.27
2017-12-10T04:24:58.858Z,16.60
2017-12-10T04:27:28.318Z,10.47
2017-12-10T04:29:58.136Z,10.70
2017-12-10T04:32:27.370Z,10.67
2017-12-10T04:34:56.518Z,12.70
2017-12-10T04:37:25.358Z,16.77
2017-12-10T04:39:54.660Z,13.23
2017-12-10T04:42:23.549Z,10.43
2017-12-10T04:44:52.440Z,12.17
2017-12-10T04:47:21.345Z,9.73
2017-12-10T04:49:51.245Z,15.20
2017-12-10T04:52:20.982Z,12.43
2017-12-10T04:54:50.835Z,13.90
2017-12-10T04:57:19.803Z,13.07
2017-12-10T04:59:50.982Z,8.67
2017-12-10T05:02:20.003Z,10.77
2017-12-10T05:04:49.099Z,9.17
2017-12-10T05:07:17.988Z,16.13
2017-12-10T05:09:47.158Z,11.70
2017-12-10T05:12:16.008Z,10.27
2017-12-10T05:14:45.274Z,9.23
2017-12-10T05:17:14.168Z,13.13
2017-12-10T05:19:43.264Z,12.60
2017-12-10T05:22:12.155Z,11.43
2017-12-10T05:24:41.044Z,12.43
2017-12-10T05:27:09.938Z,13.90
2017-12-10T05:29:39.040Z,10.80
2017-12-10T05:32:08.116Z,26.03
2017-12-10T05:34:37.021Z,11.33
2017-12-10T05:37:05.852Z,12.30
2017-12-10T05:39:34.974Z,9.30
2017-12-10T05:42:03.903Z,8.13
2017-12-10T05:44:32.788Z,9.50
2017-12-10T05:47:01.678Z,9.90
2017-12-10T05:49:30.417Z,10.80
2017-12-10T05:51:59.459Z,9.70
2017-12-10T05:54:29.582Z,8.63
2017-12-10T05:56:59.289Z,11.33
2017-12-10T05:59:28.283Z,10.47
2017-12-10T06:01:57.179Z,6.93
2017-12-10T06:04:26.890Z,8.17
2017-12-10T06:06:55.727Z,16.27
2017-12-10T06:09:24.671Z,15.70
2017-12-10T06:11:53.561Z,9.90
2017-12-10T06:14:22.450Z,10.13
2017-12-10T06:16:51.338Z,10.07
2017-12-10T06:19:20.231Z,13.40
2017-12-10T06:21:49.120Z,8.40
2017-12-10T06:24:17.909Z,9.20
2017-12-10T06:26:46.800Z,8.00
2017-12-10T06:29:16.094Z,7.43
2017-12-10T06:31:46.053Z,8.87
2017-12-10T06:34:15.733Z,7.60
2017-12-10T06:36:44.933Z,7.97
2017-12-10T06:39:14.451Z,8.60
2017-12-10T06:41:43.321Z,8.30
2017-12-10T06:44:12.417Z,13.50
2017-12-10T06:46:41.216Z,7.87
2017-12-10T06:49:10.096Z,10.20
2017-12-10T06:51:39.811Z,13.20
2017-12-10T06:54:09.110Z,10.87
2017-12-10T06:56:37.998Z,10.67
2017-12-10T06:59:06.891Z,10.50
2017-12-10T07:01:36.599Z,10.70
2017-12-10T07:04:05.491Z,7.20
2017-12-10T07:06:34.384Z,7.90
2017-12-10T07:09:03.274Z,10.57
2017-12-10T07:11:32.170Z,11.70
2017-12-10T07:14:01.057Z,8.80
2017-12-10T07:16:29.947Z,8.60
2017-12-10T07:18:58.840Z,13.40
2017-12-10T07:21:27.727Z,8.33
2017-12-10T07:23:57.258Z,11.57
2017-12-10T07:26:26.330Z,8.70
2017-12-10T07:28:55.219Z,9.20
2017-12-10T07:31:24.114Z,6.63
2017-12-10T07:33:53.002Z,11.17
2017-12-10T07:36:22.023Z,8.07
2017-12-10T07:38:50.934Z,7.80
2017-12-10T07:41:20.699Z,11.53
2017-12-10T07:43:49.591Z,11.70
2017-12-10T07:46:18.483Z,6.97
2017-12-10T07:48:47.511Z,19.63
2017-12-10T07:51:16.427Z,6.60
2017-12-10T07:53:45.359Z,12.40
2017-12-10T07:56:14.255Z,15.07
2017-12-10T07:58:43.139Z,10.47
2017-12-10T08:01:12.032Z,9.20
2017-12-10T08:03:41.687Z,10.23
2017-12-10T08:06:10.631Z,7.50
2017-12-10T08:08:39.524Z,9.07
2017-12-10T08:11:41.530Z,9.77
2017-12-10T08:14:12.130Z,11.13
2017-12-10T08:16:41.834Z,12.40
2017-12-10T08:19:11.086Z,11.93
2017-12-10T08:21:39.970Z,13.93
2017-12-10T08:24:08.938Z,10.57
2017-12-10T08:26:38.831Z,14.03
2017-12-10T08:29:07.723Z,6.50
2017-12-10T08:31:36.821Z,8.60
2017-12-10T08:34:05.772Z,13.03
2017-12-10T08:36:34.912Z,12.37
2017-12-10T08:39:03.801Z,7.63
2017-12-10T08:41:32.893Z,9.63
2017-12-10T08:44:02.749Z,9.40
2017-12-10T08:46:31.905Z,9.27
2017-12-10T08:49:00.797Z,11.13
2017-12-10T08:51:29.687Z,8.50
2017-12-10T08:53:58.578Z,5.97
2017-12-10T08:56:27.473Z,9.90
2017-12-10T08:58:56.462Z,8.23
2017-12-10T09:01:25.658Z,9.07
2017-12-10T09:03:54.445Z,8.40
2017-12-10T09:06:23.337Z,10.67
2017-12-10T09:08:52.244Z,17.17
2017-12-10T09:11:21.122Z,12.00
2017-12-10T09:13:51.033Z,12.03
2017-12-10T09:16:19.926Z,13.57
2017-12-10T09:18:48.816Z,11.43
2017-12-10T09:21:17.897Z,11.40
2017-12-10T09:23:46.807Z,9.83
2017-12-10T09:26:15.697Z,12.23
2017-12-10T09:28:44.593Z,8.20
2017-12-10T09:31:13.490Z,6.63
2017-12-10T09:33:42.850Z,8.53
2017-12-10T09:36:12.157Z,9.00
2017-12-10T09:38:42.609Z,9.37
2017-12-10T09:41:12.800Z,10.50
2017-12-10T09:43:42.000Z,10.13
2017-12-10T09:46:10.924Z,11.07
2017-12-10T09:48:39.808Z,11.20
2017-12-10T09:51:09.521Z,9.83
2017-12-10T09:53:38.414Z,16.23
2017-12-10T09:56:07.302Z,9.47
2017-12-10T09:58:36.193Z,12.50
2017-12-10T10:01:05.087Z,19.30
2017-12-10T10:03:33.880Z,6.40
2017-12-10T10:06:04.076Z,12.37
2017-12-10T10:08:34.725Z,8.90
2017-12-10T10:11:03.617Z,12.00
2017-12-10T10:13:32.508Z,9.00
2017-12-10T10:16:01.430Z,16.47
2017-12-10T10:18:30.434Z,15.87
2017-12-10T10:20:59.384Z,8.77
2017-12-10T10:23:28.280Z,13.20
2017-12-10T10:25:57.167Z,7.03
2017-12-10T10:28:26.264Z,9.07
2017-12-10T10:30:55.153Z,14.90
2017-12-10T10:33:24.044Z,11.63
2017-12-10T10:35:52.935Z,6.50
2017-12-10T10:38:21.827Z,9.53
2017-12-10T10:40:50.619Z,14.80
2017-12-10T10:43:19.507Z,9.33
2017-12-10T10:45:48.399Z,14.73
2017-12-10T10:48:17.713Z,11.70
2017-12-10T10:50:47.686Z,11.00
2017-12-10T10:53:17.638Z,14.07
2017-12-10T10:55:46.624Z,16.70
2017-12-10T10:58:15.727Z,20.37
2017-12-10T11:00:45.433Z,12.50
2017-12-10T11:03:15.092Z,10.57
2017-12-10T11:05:44.031Z,11.40
2017-12-10T11:08:13.029Z,10.57
2017-12-10T11:10:42.019Z,9.30
2017-12-10T11:13:10.919Z,13.60
2017-12-10T11:15:39.799Z,13.70
2017-12-10T11:18:09.514Z,7.10
2017-12-10T11:20:40.272Z,14.23
2017-12-10T11:23:11.112Z,11.63
2017-12-10T11:25:42.328Z,8.03
2017-12-10T11:28:11.218Z,13.53
2017-12-10T11:30:40.927Z,9.83
2017-12-10T11:33:10.026Z,8.93
2017-12-10T11:35:38.914Z,9.40
2017-12-10T11:38:08.420Z,12.90
2017-12-10T11:40:37.313Z,11.83
2017-12-10T11:43:06.043Z,9.70
2017-12-10T11:45:34.999Z,9.77
2017-12-10T11:48:05.050Z,12.90
2017-12-10T11:50:33.990Z,10.53
2017-12-10T11:53:03.774Z,10.30
2017-12-10T11:55:33.438Z,10.93
2017-12-10T11:58:02.313Z,17.70
2017-12-10T12:00:31.204Z,8.80
2017-12-10T12:03:00.916Z,18.40
2017-12-10T12:05:29.808Z,11.37
2017-12-10T12:07:58.900Z,8.87
2017-12-10T12:10:27.793Z,13.07
2017-12-10T12:12:56.696Z,9.73
2017-12-10T12:15:25.586Z,9.60
2017-12-10T12:17:54.580Z,7.50
2017-12-10T12:20:24.063Z,9.13
2017-12-10T12:22:57.472Z,11.13
2017-12-10T12:25:26.157Z,14.23
2017-12-10T12:27:55.662Z,7.60
2017-12-10T12:30:24.562Z,8.03
2017-12-10T12:32:53.449Z,6.90
2017-12-10T12:35:22.337Z,8.57
2017-12-10T12:37:51.249Z,8.20
2017-12-10T12:40:20.120Z,13.43
2017-12-10T12:42:49.043Z,6.57
2017-12-10T12:45:18.010Z,7.53
2017-12-10T12:47:46.998Z,12.20
2017-12-10T12:50:16.708Z,6.67
2017-12-10T12:52:45.763Z,9.20
2017-12-10T12:55:15.623Z,6.20
2017-12-10T12:57:44.506Z,14.00
2017-12-10T13:00:13.345Z,11.00
2017-12-10T13:02:42.239Z,9.77
2017-12-10T13:05:11.076Z,11.93
2017-12-10T13:07:40.081Z,11.00
2017-12-10T13:10:09.062Z,12.87
2017-12-10T13:12:37.957Z,10.77
2017-12-10T13:15:07.910Z,9.20
2017-12-10T13:17:44.564Z,10.00
2017-12-10T13:20:20.821Z,10.00
2017-12-10T13:22:49.697Z,9.97
2017-12-10T13:25:18.592Z,8.90
2017-12-10T13:27:47.583Z,14.60
2017-12-10T13:30:16.487Z,10.80
2017-12-10T13:32:46.189Z,9.77
2017-12-10T13:35:15.075Z,8.10
2017-12-10T13:37:43.924Z,13.50
2017-12-10T13:40:12.652Z,15.57
2017-12-10T13:42:41.924Z,8.67
2017-12-10T13:45:10.841Z,10.20
2017-12-10T13:47:39.732Z,10.73
2017-12-10T13:50:08.629Z,8.23
2017-12-10T13:52:38.331Z,13.00
2017-12-10T13:55:08.046Z,15.00
2017-12-10T13:57:36.873Z,10.03
2017-12-10T14:00:05.767Z,10.13
2017-12-10T14:02:34.725Z,12.03
2017-12-10T14:05:04.432Z,8.53
2017-12-10T14:07:34.093Z,8.20
2017-12-10T14:10:03.640Z,9.90
2017-12-10T14:12:32.737Z,8.90
2017-12-10T14:15:01.609Z,11.33
2017-12-10T14:17:30.525Z,9.03
2017-12-10T14:19:59.427Z,7.40
2017-12-10T14:22:29.120Z,12.20
2017-12-10T14:24:58.012Z,10.37
2017-12-10T14:27:27.087Z,13.50
2017-12-10T14:29:55.974Z,11.17
2017-12-10T14:32:25.094Z,13.40
2017-12-10T14:34:54.061Z,12.90
2017-12-10T14:37:22.978Z,12.70
2017-12-10T14:39:52.660Z,39.80
2017-12-10T14:42:22.604Z,11.37
2017-12-10T14:44:51.498Z,12.77
2017-12-10T14:47:21.211Z,8.80
2017-12-10T14:49:50.040Z,10.77
2017-12-10T14:52:18.999Z,7.43
2017-12-10T14:54:47.880Z,12.07
2017-12-10T14:57:16.770Z,8.30
2017-12-10T14:59:50.594Z,10.90
2017-12-10T15:02:25.223Z,13.20
2017-12-10T15:04:54.298Z,12.50
2017-12-10T15:07:23.191Z,11.67
2017-12-10T15:09:52.083Z,9.50
2017-12-10T15:12:20.971Z,10.37
2017-12-10T15:14:49.810Z,11.23
2017-12-10T15:17:18.825Z,16.20
2017-12-10T15:19:47.642Z,10.87
2017-12-10T15:22:16.533Z,13.43
2017-12-10T15:24:45.419Z,10.20
2017-12-10T15:27:14.510Z,11.90
2017-12-10T15:29:43.619Z,7.80
2017-12-10T15:32:12.514Z,10.63
2017-12-10T15:34:41.810Z,8.70
2017-12-10T15:37:11.521Z,16.00
2017-12-10T15:39:40.424Z,10.77
2017-12-10T15:42:09.158Z,8.40
2017-12-10T15:44:38.193Z,7.70
2017-12-10T15:47:07.697Z,13.53
2017-12-10T15:49:36.589Z,10.40
2017-12-10T15:52:05.480Z,16.03
2017-12-10T15:54:35.199Z,8.63
2017-12-10T15:57:04.080Z,11.73
2017-12-10T15:59:33.110Z,11.13
2017-12-10T16:02:02.066Z,14.20
2017-12-10T16:04:31.156Z,21.93
2017-12-10T16:07:00.258Z,10.30
2017-12-10T16:09:29.155Z,10.90
2017-12-10T16:11:58.041Z,11.10
2017-12-10T16:14:26.933Z,27.33
2017-12-10T16:16:56.040Z,17.60
2017-12-10T16:19:25.666Z,9.90
2017-12-10T16:21:55.349Z,17.00
2017-12-10T16:24:24.238Z,24.40
2017-12-10T16:26:53.133Z,10.80
2017-12-10T16:29:22.021Z,14.13
2017-12-10T16:31:50.909Z,24.20
2017-12-10T16:34:19.979Z,16.03
2017-12-10T16:36:49.025Z,13.43
2017-12-10T16:39:18.094Z,11.87
2017-12-10T16:41:48.016Z,13.63
2017-12-10T16:44:16.901Z,11.37
2017-12-10T16:46:46.168Z,11.73
2017-12-10T16:49:15.141Z,15.13
2017-12-10T16:51:44.170Z,12.90
2017-12-10T16:54:14.109Z,8.83
2017-12-10T16:56:43.006Z,7.50
2017-12-10T16:59:13.419Z,13.90
2017-12-10T17:01:42.625Z,10.53
2017-12-10T17:04:13.361Z,8.80
2017-12-10T17:06:43.266Z,10.50
2017-12-10T17:09:12.264Z,10.40
2017-12-10T17:11:41.252Z,10.73
2017-12-10T17:14:10.146Z,9.93
2017-12-10T17:16:40.274Z,10.53
2017-12-10T17:19:10.386Z,10.73
2017-12-10T17:21:39.484Z,12.30
2017-12-10T17:24:09.191Z,9.50
2017-12-10T17:26:38.242Z,8.37
2017-12-10T17:29:07.177Z,11.63
2017-12-10T17:31:36.068Z,5.83
2017-12-10T17:34:05.403Z,12.87
2017-12-10T17:36:35.283Z,8.17
2017-12-10T17:39:04.186Z,11.13
2017-12-10T17:41:33.272Z,7.53
2017-12-10T17:44:02.162Z,7.93
2017-12-10T17:46:30.990Z,4.43
2017-12-10T17:49:00.127Z,7.43
2017-12-10T17:51:29.042Z,5.93
2017-12-10T17:53:57.934Z,9.93
2017-12-10T17:56:26.837Z,7.67
2017-12-10T17:58:56.375Z,7.07
2017-12-10T18:01:25.322Z,4.93
2017-12-10T18:03:54.670Z,5.27
2017-12-10T18:06:23.728Z,6.20
2017-12-10T18:08:52.811Z,3.70
2017-12-10T18:11:21.911Z,3.50
2017-12-10T18:13:51.865Z,4.43
2017-12-10T18:16:21.033Z,8.40
2017-12-10T18:18:49.944Z,4.17
2017-12-10T18:21:19.650Z,8.00
2017-12-10T18:23:48.718Z,6.53
2017-12-10T18:26:17.819Z,6.73
2017-12-10T18:28:47.533Z,5.70
2017-12-10T18:31:16.435Z,8.50
2017-12-10T18:33:45.316Z,6.93
2017-12-10T18:36:14.202Z,10.73
2017-12-10T18:38:43.095Z,8.10
2017-12-10T18:41:11.986Z,10.43
2017-12-10T18:43:41.696Z,9.00
2017-12-10T18:46:11.453Z,9.50
2017-12-10T18:48:41.116Z,13.37
2017-12-10T18:51:10.004Z,7.30
2017-12-10T18:56:35.950Z,10.37
2017-12-10T18:59:04.843Z,7.00
2017-12-10T19:01:34.044Z,8.83
2017-12-10T19:04:02.868Z,11.47
2017-12-10T19:06:31.821Z,11.90
2017-12-10T19:09:00.912Z,11.60
2017-12-10T19:11:30.627Z,10.90
2017-12-10T19:13:59.687Z,24.90
2017-12-10T19:16:28.614Z,15.00
2017-12-10T19:18:58.132Z,14.60
2017-12-10T19:21:28.310Z,10.97
2017-12-10T19:23:57.340Z,24.07
2017-12-10T19:26:26.286Z,20.70
2017-12-10T19:28:55.118Z,16.70
2017-12-10T19:31:24.206Z,10.27
2017-12-10T19:33:53.099Z,11.20
2017-12-10T19:36:22.200Z,14.57
2017-12-10T19:38:51.085Z,33.33
2017-12-10T19:41:19.935Z,19.73
2017-12-10T19:43:49.049Z,12.27
2017-12-10T19:46:18.068Z,22.63
2017-12-10T19:48:47.244Z,21.07
2017-12-10T19:51:16.368Z,21.90
2017-12-10T19:53:45.253Z,23.30
2017-12-10T19:56:14.346Z,26.90
2017-12-10T19:58:43.242Z,20.23
2017-12-10T20:01:12.947Z,24.73
2017-12-10T20:03:42.147Z,18.53
2017-12-10T20:06:11.249Z,18.87
2017-12-10T20:08:41.022Z,22.03
2017-12-10T20:11:11.070Z,17.03
2017-12-10T20:13:40.854Z,14.87
2017-12-10T20:16:10.096Z,18.80
2017-12-10T20:18:39.791Z,28.00
2017-12-10T20:21:10.296Z,30.33
2017-12-10T20:23:39.569Z,23.13
2017-12-10T20:26:08.425Z,27.40
2017-12-10T20:28:38.533Z,22.07
2017-12-10T20:31:07.608Z,25.27
2017-12-10T20:33:36.521Z,25.93
2017-12-10T20:36:05.409Z,22.80
2017-12-10T20:38:34.303Z,19.40
2017-12-10T20:41:04.011Z,18.10
2017-12-10T20:43:33.937Z,25.90
2017-12-10T20:46:03.813Z,24.67
2017-12-10T20:48:32.666Z,23.30
2017-12-10T20:51:01.624Z,23.23
2017-12-10T20:53:30.793Z,19.23
2017-12-10T20:55:59.610Z,33.00
2017-12-10T20:58:28.910Z,33.70
2017-12-10T21:00:58.631Z,19.10
2017-12-10T21:03:31.694Z,22.20
2017-12-10T21:06:00.914Z,14.60
2017-12-10T21:08:30.670Z,13.80
2017-12-10T21:10:59.734Z,15.87
2017-12-10T21:13:28.612Z,14.03
2017-12-10T21:15:57.444Z,22.80
2017-12-10T21:18:27.207Z,16.93
2017-12-10T21:20:56.302Z,24.20
2017-12-10T21:23:26.176Z,28.83
2017-12-10T21:25:56.910Z,28.00
2017-12-10T21:28:26.056Z,19.10
2017-12-10T21:30:55.755Z,25.53
2017-12-10T21:33:26.994Z,14.97
2017-12-10T21:35:56.217Z,30.97
2017-12-10T21:38:25.091Z,30.67
2017-12-10T21:41:08.523Z,23.23
2017-12-10T21:43:37.415Z,18.83
2017-12-10T21:46:06.309Z,34.90
2017-12-10T21:48:36.164Z,29.37
2017-12-10T21:51:05.110Z,27.77
2017-12-10T21:53:34.000Z,28.50
2017-12-10T21:56:03.343Z,22.87
2017-12-10T21:58:32.192Z,22.13
2017-12-10T22:01:01.088Z,25.63
2017-12-10T22:03:32.564Z,29.27
2017-12-10T22:06:01.692Z,28.47
2017-12-10T22:08:31.591Z,20.77
2017-12-10T22:11:00.539Z,24.80
2017-12-10T22:13:29.436Z,21.60
2017-12-10T22:15:58.429Z,21.53
2017-12-10T22:18:27.327Z,24.33
2017-12-10T22:20:56.363Z,19.60
2017-12-10T22:23:25.477Z,15.33
2017-12-10T22:25:54.473Z,33.13
2017-12-10T22:28:25.336Z,19.90
2017-12-10T22:30:54.227Z,35.40
2017-12-10T22:33:23.120Z,21.87
2017-12-10T22:35:52.017Z,32.97
2017-12-10T22:38:21.002Z,21.20
2017-12-10T22:40:49.894Z,16.83
2017-12-10T22:43:19.603Z,14.37
2017-12-10T22:45:48.448Z,18.33
2017-12-10T22:48:17.344Z,14.90
2017-12-10T22:50:46.732Z,17.97
2017-12-10T22:53:17.188Z,23.50
2017-12-10T22:58:45.720Z,16.73
2017-12-10T23:01:14.566Z,16.23
2017-12-10T23:03:43.927Z,10.87
2017-12-10T23:06:13.628Z,13.23
2017-12-10T23:08:42.723Z,15.87
2017-12-10T23:11:12.431Z,12.40
2017-12-10T23:13:52.173Z,29.93
2017-12-10T23:16:29.820Z,12.47
2017-12-10T23:19:01.990Z,15.23
2017-12-10T23:21:30.833Z,13.30
2017-12-10T23:24:00.538Z,11.23
2017-12-10T23:26:29.741Z,11.80
2017-12-10T23:28:58.833Z,18.63
2017-12-10T23:31:28.136Z,12.37
2017-12-10T23:33:57.133Z,16.23
2017-12-10T23:36:26.220Z,16.27
2017-12-10T23:38:55.110Z,8.83
2017-12-10T23:41:24.002Z,14.60
2017-12-10T23:43:53.505Z,13.30
2017-12-10T23:46:22.396Z,20.37
2017-12-10T23:48:51.471Z,11.03
2017-12-10T23:51:20.386Z,11.23
2017-12-10T23:53:49.276Z,9.73
2017-12-10T23:56:18.167Z,10.20
2017-12-10T23:58:47.060Z,7.47
